This is the latest recevied weather packets stored in our database for station/object NN5DX-13. If no packets are shown the sender has not sent any weather packets the latest 10 day(s).
| Time | Temp. | Humidity | Pressure | Rain* | Wind** | Luminosity | Snow |
|---|---|---|---|---|---|---|---|
| 1787571020 | 23.89° C | 46% | 1018 hPa | 0 mm | - | - | - |
| 1787570720 | 23.33° C | 47% | 1017.9 hPa | 0 mm | - | - | - |
| 1787570421 | 23.33° C | 47% | 1017.9 hPa | 0 mm | - | - | - |
| 1787570120 | 23.89° C | 46% | 1017.9 hPa | 0 mm | - | - | - |
| 1787569820 | 23.89° C | 46% | 1017.8 hPa | 0 mm | - | - | - |
| 1787569521 | 24.44° C | 45% | 1018 hPa | 0 mm | - | - | - |
| 1787569220 | 24.44° C | 44% | 1017.8 hPa | 0 mm | - | - | - |
| 1787568920 | 25° C | 44% | 1017.9 hPa | 0 mm | - | - | - |
| 1787568621 | 25° C | 44% | 1017.8 hPa | 0 mm | - | - | - |
| 1787568320 | 25° C | 43% | 1017.9 hPa | 0 mm | - | - | - |
| 1787568020 | 25° C | 43% | 1017.9 hPa | 0 mm | - | - | - |
| 1787567720 | 25° C | 43% | 1017.9 hPa | 0 mm | - | - | - |
| 1787567420 | 25.56° C | 43% | 1018 hPa | 0 mm | - | - | - |
| 1787567121 | 25.56° C | 43% | 1018.1 hPa | 0 mm | - | - | - |
| 1787566820 | 25.56° C | 42% | 1017.9 hPa | 0 mm | - | - | - |
| 1787566521 | 25.56° C | 42% | 1018 hPa | 0 mm | - | - | - |
| 1787566221 | 25.56° C | 42% | 1018.1 hPa | 0 mm | - | - | - |
| 1787565921 | 26.11° C | 42% | 1018.4 hPa | 0 mm | - | - | - |
| 1787565621 | 26.11° C | 41% | 1018.3 hPa | 0 mm | - | - | - |
| 1787565321 | 26.11° C | 41% | 1018.3 hPa | 0 mm | - | - | - |
| 1787565020 | 26.11° C | 42% | 1018.5 hPa | 0 mm | - | - | - |
| 1787564720 | 26.11° C | 42% | 1018.2 hPa | 0 mm | - | - | - |
| 1787564420 | 26.11° C | 42% | 1018.5 hPa | 0 mm | - | - | - |
| 1787564121 | 25.56° C | 42% | 1018.2 hPa | 0 mm | - | - | - |
| 1787563820 | 25.56° C | 42% | 1018.2 hPa | 0 mm | - | - | - |
* Rain latest hour (hover to see other rain measurements)
** Current wind speed in m/s (hover to see current wind gust speed)